Terminal Aerodrome Forecast
Issued by NWS Greer, SC

Home | Current Version | Previous Version | Text Only | Print | Product List | Glossary On
Versions: 1 2 3 4 5 6 7 8 9 10 11 12 13 14 15 16 17 18 19 20 21 22 23 24 25 26 27 28
794
FTUS42 KGSP 080539
TAFAVL
TAF
KAVL 080539Z 0806/0906 30003KT P6SM SCT120
     FM081200 VRB03KT P6SM VCSH OVC070
     FM081500 22003KT P6SM SCT040 OVC060 PROB30 0818/0824 4SM
      -SHRASN OVC040
     FM090000 30005KT P6SM VCSH BKN045=

USA.gov is the U.S. government's official web portal to all federal, state and local government web resources and services.